Time;durP1;ratioP1;P1;durP2;ratioP2;P2;SDS_P1;SDS_P2;PMS_P1;PMS_P2;Temp;Humidity;BMP_temperature;BMP_pressure;BME280_temperature;BME280_humidity;BME280_pressure;Samples;Min_cycle;Max_cycle;Signal;HPM_P1;HPM_P2
2023/04/18 00:00:12;;;;;;;11.85;7.90;;;10.00;85.20;;;;;;4952548;28;20035;-65
2023/04/18 00:02:38;;;;;;;10.38;8.20;;;10.00;85.20;;;;;;4953019;28;20031;-64
2023/04/18 00:05:06;;;;;;;10.48;8.13;;;9.90;85.20;;;;;;4953236;28;20111;-64
2023/04/18 00:07:34;;;;;;;9.98;7.85;;;9.90;85.30;;;;;;4953694;28;20062;-64
2023/04/18 00:10:00;;;;;;;10.88;8.45;;;9.90;85.30;;;;;;4954273;28;20580;-64
2023/04/18 00:12:26;;;;;;;9.55;7.70;;;9.90;85.30;;;;;;4954766;28;20069;-64
2023/04/18 00:14:51;;;;;;;10.18;8.40;;;9.90;85.40;;;;;;4953150;28;20419;-65
2023/04/18 00:17:17;;;;;;;10.55;8.40;;;9.90;85.40;;;;;;4957184;28;20046;-65
2023/04/18 00:19:43;;;;;;;10.60;8.27;;;9.90;85.30;;;;;;4960216;28;20046;-64
2023/04/18 00:22:12;;;;;;;10.02;8.20;;;9.90;85.40;;;;;;4961339;28;20439;-64
2023/04/18 00:24:39;;;;;;;10.30;8.32;;;9.90;85.50;;;;;;4960489;28;20618;-64
2023/04/18 00:27:04;;;;;;;10.18;7.93;;;9.90;85.50;;;;;;4959181;28;20174;-64
2023/04/18 00:29:33;;;;;;;9.77;8.27;;;9.90;85.50;;;;;;4961206;28;20035;-64
2023/04/18 00:34:34;;;;;;;10.50;8.75;;;9.90;85.50;;;;;;5411644;22;20112;-64
2023/04/18 00:36:59;;;;;;;12.00;7.70;;;9.80;85.50;;;;;;4989693;28;20035;-63
2023/04/18 00:39:25;;;;;;;9.80;8.32;;;9.80;85.50;;;;;;4994665;28;20037;-63
2023/04/18 00:41:50;;;;;;;10.27;8.05;;;9.80;85.50;;;;;;4999855;28;20555;-63
2023/04/18 00:44:16;;;;;;;10.10;8.30;;;9.80;85.50;;;;;;4991847;28;20081;-63
2023/04/18 00:46:42;;;;;;;10.60;8.15;;;9.80;85.60;;;;;;4985447;28;20026;-63
2023/04/18 00:49:08;;;;;;;10.18;7.97;;;9.80;85.70;;;;;;4989216;28;20039;-64
2023/04/18 00:51:34;;;;;;;11.07;8.68;;;9.80;85.70;;;;;;4988458;28;20050;-63
2023/04/18 00:54:02;;;;;;;12.98;8.05;;;9.80;85.90;;;;;;4981037;28;20502;-63
2023/04/18 00:56:28;;;;;;;11.57;8.30;;;9.80;85.90;;;;;;4983667;28;20046;-64
2023/04/18 00:58:54;;;;;;;10.77;8.70;;;9.80;86.80;;;;;;4980033;28;20035;-63
2023/04/18 01:01:20;;;;;;;12.00;8.27;;;9.80;86.00;;;;;;4987206;28;20529;-63
2023/04/18 01:03:45;;;;;;;10.88;8.80;;;9.80;85.90;;;;;;4979550;28;20057;-63
2023/04/18 01:06:11;;;;;;;9.48;8.05;;;9.80;85.90;;;;;;4983514;28;20706;-63
2023/04/18 01:08:37;;;;;;;11.85;8.65;;;9.80;85.90;;;;;;4979113;28;20031;-64
2023/04/18 01:11:02;;;;;;;11.00;8.45;;;9.80;85.90;;;;;;4981116;28;20129;-64
2023/04/18 01:13:28;;;;;;;10.52;8.73;;;9.80;85.90;;;;;;4979307;28;20046;-63
2023/04/18 01:15:54;;;;;;;11.55;8.60;;;9.80;85.90;;;;;;4978133;28;20600;-63
2023/04/18 01:18:21;;;;;;;10.50;8.35;;;9.80;85.90;;;;;;4986312;28;20046;-63
2023/04/18 01:20:48;;;;;;;10.70;8.85;;;9.80;85.90;;;;;;4983602;28;20120;-64
2023/04/18 01:23:15;;;;;;;11.23;8.48;;;9.80;85.90;;;;;;4982910;28;20091;-63
2023/04/18 01:25:41;;;;;;;11.93;8.95;;;9.80;85.90;;;;;;4982155;28;20037;-63
2023/04/18 01:28:07;;;;;;;10.55;8.52;;;9.80;85.90;;;;;;4981642;28;20038;-64
2023/04/18 01:30:33;;;;;;;11.02;8.25;;;9.80;85.90;;;;;;4978618;28;20093;-63
2023/04/18 01:33:03;;;;;;;11.40;8.98;;;9.80;85.90;;;;;;4978475;28;20160;-64
2023/04/18 01:35:30;;;;;;;11.48;9.02;;;9.80;85.90;;;;;;4977586;28;20057;-63
2023/04/18 01:37:56;;;;;;;12.60;9.23;;;9.80;85.90;;;;;;4982757;28;20034;-63
2023/04/18 01:40:22;;;;;;;12.10;9.23;;;9.80;85.80;;;;;;4979614;28;20026;-63
2023/04/18 01:42:47;;;;;;;11.88;8.82;;;9.80;85.80;;;;;;4974274;28;20049;-64
2023/04/18 01:45:14;;;;;;;11.45;9.10;;;9.80;85.70;;;;;;4976862;28;20030;-63
2023/04/18 01:47:40;;;;;;;12.38;9.70;;;9.80;85.80;;;;;;4984869;28;20031;-64
2023/04/18 01:50:06;;;;;;;10.55;8.90;;;9.80;85.80;;;;;;4984465;28;20038;-63
2023/04/18 01:52:32;;;;;;;12.40;9.77;;;9.80;85.70;;;;;;4985801;28;20039;-63
2023/04/18 01:54:57;;;;;;;13.52;10.13;;;9.80;85.80;;;;;;4986622;28;20041;-63
2023/04/18 01:57:23;;;;;;;12.00;9.52;;;9.80;85.70;;;;;;4986704;28;20050;-63
2023/04/18 01:59:49;;;;;;;12.52;9.18;;;9.80;85.70;;;;;;4987271;28;20030;-63
2023/04/18 02:02:14;;;;;;;12.85;10.15;;;9.80;85.80;;;;;;4977728;28;20069;-63
2023/04/18 02:04:40;;;;;;;13.55;9.85;;;9.80;85.90;;;;;;4975727;28;20064;-63
2023/04/18 02:07:05;;;;;;;12.70;9.90;;;9.80;85.90;;;;;;4980257;28;20042;-63
2023/04/18 02:09:31;;;;;;;13.07;9.75;;;9.80;86.70;;;;;;4977174;28;20097;-63
2023/04/18 02:11:58;;;;;;;14.20;10.48;;;9.80;86.00;;;;;;4959627;28;20042;-63
2023/04/18 02:14:30;;;;;;;13.93;10.23;;;9.80;86.00;;;;;;4976128;28;20658;-63
2023/04/18 02:16:55;;;;;;;13.77;10.35;;;9.80;86.20;;;;;;4977264;28;20137;-64
2023/04/18 02:19:21;;;;;;;13.90;10.38;;;9.70;86.10;;;;;;4979491;28;20192;-63
2023/04/18 02:21:46;;;;;;;14.90;10.82;;;9.70;86.10;;;;;;4963849;28;20039;-63
2023/04/18 02:24:12;;;;;;;14.23;10.45;;;9.70;86.20;;;;;;4979785;28;20042;-63
2023/04/18 02:26:37;;;;;;;14.38;10.23;;;9.70;86.20;;;;;;4979104;28;20057;-63
2023/04/18 02:29:03;;;;;;;15.43;10.10;;;9.70;86.20;;;;;;4973299;28;20049;-64
2023/04/18 02:31:29;;;;;;;18.08;11.35;;;9.70;86.20;;;;;;4977919;28;20097;-63
2023/04/18 02:33:54;;;;;;;14.25;10.90;;;9.70;86.30;;;;;;4980556;28;20042;-63
2023/04/18 02:36:20;;;;;;;17.10;11.77;;;9.70;86.20;;;;;;4979490;28;20413;-63
2023/04/18 02:38:45;;;;;;;16.63;11.50;;;9.70;86.20;;;;;;4963760;28;20042;-63
2023/04/18 02:41:14;;;;;;;13.82;10.48;;;9.70;86.40;;;;;;4978597;28;20054;-63
2023/04/18 02:43:40;;;;;;;16.05;11.18;;;9.70;86.40;;;;;;4973588;28;20030;-64
2023/04/18 02:46:06;;;;;;;15.45;11.25;;;9.70;86.30;;;;;;4975056;28;20121;-63
2023/04/18 02:48:31;;;;;;;17.02;12.07;;;9.70;86.40;;;;;;4975679;28;20053;-64
2023/04/18 02:51:07;;;;;;;18.48;12.40;;;9.70;86.60;;;;;;4976203;28;20046;-63
2023/04/18 02:53:34;;;;;;;19.85;12.25;;;9.70;86.70;;;;;;4977183;28;20038;-63
2023/04/18 02:56:00;;;;;;;17.08;12.38;;;9.70;86.60;;;;;;4980832;28;20094;-63
2023/04/18 02:58:26;;;;;;;19.63;12.75;;;9.70;86.60;;;;;;4979889;28;20979;-63
2023/04/18 03:00:54;;;;;;;16.48;11.98;;;9.70;86.70;;;;;;4974570;28;20073;-63
2023/04/18 03:03:19;;;;;;;18.83;13.18;;;9.70;86.70;;;;;;4977845;28;20035;-63
2023/04/18 03:05:45;;;;;;;17.23;12.40;;;9.70;86.70;;;;;;4979755;28;20045;-63
2023/04/18 03:08:11;;;;;;;17.75;12.88;;;9.60;86.70;;;;;;4982921;28;20889;-62
2023/04/18 03:10:37;;;;;;;20.13;12.45;;;9.60;86.70;;;;;;4978812;28;20498;-63
2023/04/18 03:13:03;;;;;;;18.85;12.68;;;9.60;86.90;;;;;;4972751;28;20142;-64
2023/04/18 03:15:31;;;;;;;18.55;12.60;;;9.60;86.90;;;;;;4976743;28;20030;-63
2023/04/18 03:17:57;;;;;;;18.08;12.80;;;9.60;86.90;;;;;;4977305;28;20314;-64
2023/04/18 03:20:23;;;;;;;19.45;13.50;;;9.60;87.00;;;;;;4978251;28;20030;-63
2023/04/18 03:22:49;;;;;;;18.58;13.43;;;9.60;87.10;;;;;;4979135;28;20118;-62
2023/04/18 03:25:14;;;;;;;17.05;12.30;;;9.60;87.10;;;;;;4974005;28;20501;-63
2023/04/18 03:27:41;;;;;;;18.20;12.48;;;9.60;87.10;;;;;;4974608;28;20398;-63
2023/04/18 03:30:08;;;;;;;18.98;12.90;;;9.60;86.90;;;;;;4975614;28;20030;-63
2023/04/18 03:32:33;;;;;;;21.58;13.57;;;9.60;87.00;;;;;;4976880;28;20054;-62
2023/04/18 03:34:59;;;;;;;17.83;13.15;;;9.60;87.10;;;;;;4974402;28;20406;-63
2023/04/18 03:37:25;;;;;;;20.23;13.85;;;9.60;87.10;;;;;;4974951;28;20406;-63
2023/04/18 03:39:51;;;;;;;20.02;13.57;;;9.60;87.10;;;;;;4970715;28;20037;-63
2023/04/18 03:42:16;;;;;;;19.13;13.50;;;9.60;87.10;;;;;;4975089;28;20042;-63
2023/04/18 03:44:42;;;;;;;20.45;13.93;;;9.60;87.30;;;;;;4973791;28;20338;-63
2023/04/18 03:47:08;;;;;;;19.30;13.43;;;9.60;87.20;;;;;;4978260;28;20053;-63
2023/04/18 03:49:33;;;;;;;20.77;13.30;;;9.60;87.30;;;;;;4984966;28;20046;-63
2023/04/18 03:51:59;;;;;;;19.80;13.80;;;9.60;87.30;;;;;;4984086;28;20366;-63
2023/04/18 03:54:24;;;;;;;21.02;14.38;;;9.60;87.40;;;;;;4984396;28;20069;-63
2023/04/18 03:56:50;;;;;;;20.00;14.48;;;9.60;87.30;;;;;;4984434;28;20572;-63
2023/04/18 03:59:15;;;;;;;19.75;14.10;;;9.60;87.30;;;;;;4984933;28;20038;-63
2023/04/18 04:01:41;;;;;;;20.15;13.98;;;9.60;87.30;;;;;;4979215;28;20038;-63
2023/04/18 04:04:08;;;;;;;20.45;14.55;;;9.60;87.30;;;;;;4974479;28;20859;-63
2023/04/18 04:06:33;;;;;;;19.40;13.80;;;9.60;87.40;;;;;;4974498;28;20042;-63
2023/04/18 04:08:59;;;;;;;21.33;15.95;;;9.60;87.40;;;;;;4976297;28;20033;-63
2023/04/18 04:11:26;;;;;;;21.17;14.85;;;9.60;87.40;;;;;;4974579;28;20050;-63
2023/04/18 04:13:51;;;;;;;19.48;13.80;;;9.60;87.40;;;;;;4970014;28;20039;-63
2023/04/18 04:16:17;;;;;;;20.40;14.70;;;9.60;87.40;;;;;;4974038;28;20097;-63
2023/04/18 04:18:43;;;;;;;20.23;14.90;;;9.60;87.40;;;;;;4975409;28;20501;-63
2023/04/18 04:21:08;;;;;;;22.20;14.90;;;9.60;87.40;;;;;;4975125;28;20030;-63
2023/04/18 04:23:34;;;;;;;21.92;15.55;;;9.60;87.50;;;;;;4976166;28;20501;-63
2023/04/18 04:26:02;;;;;;;19.35;14.45;;;9.60;87.50;;;;;;4958608;28;20278;-63
2023/04/18 04:28:29;;;;;;;20.08;14.40;;;9.60;87.40;;;;;;4974317;28;20923;-64
2023/04/18 04:30:56;;;;;;;20.92;15.57;;;9.60;87.40;;;;;;4979063;28;20125;-63
2023/04/18 04:33:28;;;;;;;22.50;15.27;;;9.60;87.50;;;;;;4978861;28;20518;-64
2023/04/18 04:35:55;;;;;;;20.73;15.32;;;9.60;87.50;;;;;;4980368;28;20122;-63
2023/04/18 04:38:23;;;;;;;21.13;15.50;;;9.60;87.40;;;;;;4983427;28;20042;-63
2023/04/18 04:40:49;;;;;;;19.52;15.10;;;9.60;87.40;;;;;;4980010;28;20564;-63
2023/04/18 04:43:16;;;;;;;20.98;15.10;;;9.60;87.40;;;;;;4980463;28;20042;-63
2023/04/18 04:45:42;;;;;;;19.90;15.18;;;9.60;87.40;;;;;;4979284;28;20030;-63
2023/04/18 04:48:08;;;;;;;22.15;15.40;;;9.60;87.40;;;;;;4981337;28;20421;-63
2023/04/18 04:50:35;;;;;;;20.35;15.00;;;9.60;87.40;;;;;;4980891;28;20054;-63
2023/04/18 04:53:01;;;;;;;22.48;15.43;;;9.60;87.40;;;;;;4982362;28;20064;-63
2023/04/18 04:55:26;;;;;;;21.60;15.02;;;9.60;87.40;;;;;;4982674;28;20042;-63
2023/04/18 04:57:54;;;;;;;23.30;15.90;;;9.60;87.40;;;;;;4980904;28;20030;-63
2023/04/18 05:00:21;;;;;;;22.55;16.02;;;9.60;87.40;;;;;;4982124;28;20618;-62
2023/04/18 05:02:47;;;;;;;21.48;15.35;;;9.70;87.50;;;;;;4980193;28;20045;-63
2023/04/18 05:05:13;;;;;;;24.90;16.42;;;9.70;87.60;;;;;;4962047;28;20429;-63
2023/04/18 05:07:38;;;;;;;23.20;16.13;;;9.70;87.40;;;;;;4985392;28;20045;-63
2023/04/18 05:10:04;;;;;;;23.20;16.38;;;9.70;87.40;;;;;;4984386;28;20401;-62
2023/04/18 05:12:30;;;;;;;23.38;16.55;;;9.70;87.40;;;;;;4985548;28;20085;-64
2023/04/18 05:14:56;;;;;;;22.25;15.88;;;9.70;87.40;;;;;;4986527;28;20034;-63
2023/04/18 05:17:21;;;;;;;22.15;15.63;;;9.70;87.50;;;;;;4984736;28;20137;-63
2023/04/18 05:19:47;;;;;;;23.27;17.13;;;9.70;87.50;;;;;;4985044;28;20332;-63
2023/04/18 05:22:13;;;;;;;24.80;17.83;;;9.70;87.50;;;;;;4986665;28;20038;-63
2023/04/18 05:24:38;;;;;;;21.00;16.60;;;9.70;87.50;;;;;;4985686;28;20034;-63
2023/04/18 05:27:04;;;;;;;22.58;16.33;;;9.70;87.40;;;;;;4985016;28;20100;-62
2023/04/18 05:29:30;;;;;;;20.42;14.98;;;9.70;87.40;;;;;;4984269;28;20035;-63
2023/04/18 05:31:55;;;;;;;22.70;16.40;;;9.70;87.40;;;;;;4983391;28;20039;-63
2023/04/18 05:34:21;;;;;;;20.77;15.68;;;9.70;87.40;;;;;;4986285;28;20042;-64
2023/04/18 05:36:47;;;;;;;21.35;15.85;;;9.70;87.40;;;;;;4985048;28;20038;-63
2023/04/18 05:39:12;;;;;;;22.35;16.33;;;9.70;87.40;;;;;;4984577;28;20129;-63
2023/04/18 05:41:38;;;;;;;20.98;15.68;;;9.70;87.40;;;;;;4986080;28;20080;-63
2023/04/18 05:44:04;;;;;;;22.15;15.98;;;9.70;87.40;;;;;;4984788;28;20034;-63
2023/04/18 05:46:30;;;;;;;21.52;15.98;;;9.70;87.30;;;;;;4982873;28;20050;-63
2023/04/18 05:48:55;;;;;;;20.77;15.68;;;9.60;87.20;;;;;;4983545;28;20053;-62
2023/04/18 05:51:21;;;;;;;22.02;15.90;;;9.70;87.20;;;;;;4984184;28;20516;-63
2023/04/18 05:53:47;;;;;;;22.00;15.80;;;9.70;87.30;;;;;;4984490;28;20060;-63
2023/04/18 05:56:12;;;;;;;19.77;15.00;;;9.70;87.10;;;;;;4985133;28;20154;-63
2023/04/18 05:58:38;;;;;;;21.65;15.85;;;9.70;87.10;;;;;;4982412;28;20034;-63
2023/04/18 06:01:05;;;;;;;21.45;16.20;;;9.70;87.10;;;;;;4983876;28;20039;-63
2023/04/18 06:03:31;;;;;;;20.73;16.02;;;9.70;87.10;;;;;;4984464;28;20363;-63
2023/04/18 06:05:56;;;;;;;23.50;16.45;;;9.70;87.10;;;;;;4984082;28;20189;-64
2023/04/18 06:08:22;;;;;;;22.02;16.23;;;9.70;87.10;;;;;;4984623;28;20065;-63
2023/04/18 06:10:48;;;;;;;23.23;15.88;;;9.70;87.20;;;;;;4984465;28;20120;-63
2023/04/18 06:13:13;;;;;;;21.48;16.55;;;9.70;87.30;;;;;;4983111;28;20499;-63
2023/04/18 06:15:39;;;;;;;25.95;16.15;;;9.70;87.30;;;;;;4984343;28;20045;-64
2023/04/18 06:18:05;;;;;;;24.83;17.35;;;9.70;87.30;;;;;;4983432;28;20058;-63
2023/04/18 06:20:30;;;;;;;23.70;16.27;;;9.70;87.40;;;;;;4984462;28;20042;-63
2023/04/18 06:22:56;;;;;;;22.35;16.55;;;9.70;87.20;;;;;;4984343;28;20489;-61
2023/04/18 06:25:23;;;;;;;25.15;16.80;;;9.70;87.20;;;;;;4980550;28;20093;-63
2023/04/18 06:27:48;;;;;;;22.83;15.70;;;9.70;87.30;;;;;;4983376;28;20038;-63
2023/04/18 06:30:14;;;;;;;21.77;16.25;;;9.80;87.30;;;;;;4982247;28;20027;-63
2023/04/18 06:32:40;;;;;;;23.27;16.98;;;9.80;87.40;;;;;;4979762;28;20113;-63
2023/04/18 06:35:06;;;;;;;21.75;16.20;;;9.70;87.40;;;;;;4983828;28;20501;-63
2023/04/18 06:37:31;;;;;;;23.25;17.00;;;9.80;87.50;;;;;;4982903;28;20125;-64
2023/04/18 06:39:57;;;;;;;22.75;16.20;;;9.80;87.50;;;;;;4982811;28;20042;-63
2023/04/18 06:42:23;;;;;;;22.33;16.08;;;9.80;87.40;;;;;;4983893;28;20049;-64
2023/04/18 06:44:49;;;;;;;22.25;16.35;;;9.80;87.50;;;;;;4983399;28;20035;-63
2023/04/18 06:47:15;;;;;;;22.83;16.73;;;9.90;87.50;;;;;;4983634;28;20510;-63
2023/04/18 06:49:40;;;;;;;24.88;16.58;;;9.90;87.40;;;;;;4983662;28;20093;-63
2023/04/18 06:52:06;;;;;;;22.27;16.35;;;9.90;87.40;;;;;;4983851;28;20074;-63
2023/04/18 06:54:31;;;;;;;22.90;17.17;;;9.90;87.40;;;;;;4983160;28;20406;-63
2023/04/18 06:56:58;;;;;;;22.88;15.98;;;10.00;87.50;;;;;;4967714;28;20035;-63
2023/04/18 06:59:23;;;;;;;23.88;16.40;;;10.00;87.50;;;;;;4983842;28;20262;-62
2023/04/18 07:01:50;;;;;;;22.95;15.75;;;10.00;87.30;;;;;;4982139;28;20030;-63
2023/04/18 07:04:15;;;;;;;21.35;16.17;;;10.10;87.30;;;;;;4983648;28;20042;-63
2023/04/18 07:06:41;;;;;;;24.85;16.48;;;10.10;87.30;;;;;;4983724;28;20061;-63
2023/04/18 07:09:07;;;;;;;24.02;16.42;;;10.10;87.20;;;;;;4984355;28;20076;-63
2023/04/18 07:11:33;;;;;;;23.33;16.77;;;10.20;87.10;;;;;;4980338;28;20047;-64
2023/04/18 07:13:59;;;;;;;23.13;16.50;;;10.20;86.90;;;;;;4960576;28;20207;-63
2023/04/18 07:16:24;;;;;;;24.77;16.52;;;10.20;86.90;;;;;;4982987;28;20046;-63
2023/04/18 07:18:50;;;;;;;23.92;16.95;;;10.20;86.90;;;;;;4983249;28;20035;-63
2023/04/18 07:21:17;;;;;;;23.33;17.58;;;10.30;86.90;;;;;;4983107;28;20035;-62
2023/04/18 07:23:43;;;;;;;24.92;17.58;;;10.30;87.10;;;;;;4982850;28;20379;-64
2023/04/18 07:26:10;;;;;;;23.45;17.45;;;10.30;86.90;;;;;;4981662;28;20045;-63
2023/04/18 07:28:35;;;;;;;24.25;17.10;;;10.30;86.70;;;;;;4983008;28;20042;-63
2023/04/18 07:31:03;;;;;;;24.35;17.38;;;10.40;86.60;;;;;;4981776;28;20034;-63
2023/04/18 07:33:32;;;;;;;25.40;18.08;;;10.30;86.40;;;;;;4981940;28;20038;-63
2023/04/18 07:35:59;;;;;;;24.23;17.13;;;10.40;86.20;;;;;;4981733;28;20577;-63
2023/04/18 07:38:25;;;;;;;25.85;18.27;;;10.30;86.00;;;;;;4983716;28;20219;-63
2023/04/18 07:40:58;;;;;;;24.60;17.30;;;10.40;86.10;;;;;;4983011;28;20061;-62
2023/04/18 07:43:24;;;;;;;25.05;17.70;;;10.40;86.10;;;;;;4981909;28;20100;-63
2023/04/18 07:45:50;;;;;;;25.85;17.73;;;10.40;86.00;;;;;;4981191;28;20038;-63
2023/04/18 07:48:16;;;;;;;26.30;18.27;;;10.30;85.80;;;;;;4981981;28;20587;-63
2023/04/18 07:50:42;;;;;;;24.50;17.60;;;10.40;85.90;;;;;;4982695;28;20058;-63
2023/04/18 07:53:08;;;;;;;25.10;17.45;;;10.40;85.90;;;;;;4983837;28;20042;-64
2023/04/18 07:55:33;;;;;;;24.92;17.65;;;10.30;85.90;;;;;;4983709;28;20042;-63
2023/04/18 07:57:59;;;;;;;25.63;17.50;;;10.40;86.00;;;;;;4983697;28;20118;-63
2023/04/18 08:00:25;;;;;;;25.35;17.75;;;10.40;85.90;;;;;;4981718;28;20081;-63
2023/04/18 08:02:51;;;;;;;25.92;17.13;;;10.40;85.90;;;;;;4973790;28;20038;-63
2023/04/18 08:05:18;;;;;;;23.35;16.80;;;10.40;85.80;;;;;;4983882;28;20674;-64
2023/04/18 08:07:44;;;;;;;23.42;17.20;;;10.40;86.00;;;;;;4982768;28;20069;-63
2023/04/18 08:10:10;;;;;;;27.15;17.63;;;10.50;86.20;;;;;;4984210;28;20497;-63
2023/04/18 08:12:36;;;;;;;22.23;16.77;;;10.50;86.20;;;;;;4981502;28;20034;-63
2023/04/18 08:15:02;;;;;;;23.67;17.08;;;10.50;86.10;;;;;;4984714;28;20389;-62
2023/04/18 08:17:28;;;;;;;25.90;18.55;;;10.50;86.00;;;;;;4981917;28;20039;-63
2023/04/18 08:19:54;;;;;;;28.15;16.92;;;10.60;86.10;;;;;;4983012;28;20082;-63
2023/04/18 08:22:19;;;;;;;22.20;16.40;;;10.60;86.20;;;;;;4983845;28;20038;-63
2023/04/18 08:24:45;;;;;;;22.67;16.77;;;10.60;86.40;;;;;;4982308;28;20038;-63
2023/04/18 08:27:11;;;;;;;23.55;17.58;;;10.70;86.40;;;;;;4984771;28;20437;-63
2023/04/18 08:29:36;;;;;;;23.52;17.23;;;10.70;86.20;;;;;;4983864;28;20034;-63
2023/04/18 08:32:05;;;;;;;25.05;17.92;;;10.80;86.20;;;;;;4979190;28;20035;-62
2023/04/18 08:34:32;;;;;;;23.80;16.75;;;10.80;86.20;;;;;;4982100;28;20537;-63
2023/04/18 08:36:58;;;;;;;23.40;16.75;;;10.90;86.40;;;;;;4983392;28;20042;-63
2023/04/18 08:39:23;;;;;;;21.80;16.52;;;11.00;86.30;;;;;;4985310;28;20130;-64
2023/04/18 08:41:55;;;;;;;24.20;16.63;;;11.00;87.20;;;;;;4986751;28;20034;-63
2023/04/18 08:44:21;;;;;;;22.65;16.15;;;11.10;86.20;;;;;;4986207;28;20450;-63
2023/04/18 08:46:47;;;;;;;22.33;16.13;;;11.10;86.10;;;;;;4984893;28;20038;-63
2023/04/18 08:49:13;;;;;;;23.02;17.13;;;11.30;86.40;;;;;;4987235;28;20042;-63
2023/04/18 08:51:40;;;;;;;20.73;15.80;;;11.40;86.40;;;;;;4987014;28;20125;-63
2023/04/18 08:54:07;;;;;;;20.00;15.13;;;11.40;86.00;;;;;;4988051;28;20062;-63
2023/04/18 08:56:36;;;;;;;20.83;16.25;;;11.60;86.00;;;;;;4986397;28;20129;-64
2023/04/18 08:59:01;;;;;;;21.13;15.55;;;11.60;85.50;;;;;;4988314;28;20085;-64
2023/04/18 09:01:50;;;;;;;21.42;15.80;;;11.70;85.20;;;;;;4985164;28;21028;-64
2023/04/18 09:04:37;;;;;;;20.10;15.20;;;11.80;85.00;;;;;;4986003;28;20038;-62
2023/04/18 09:07:06;;;;;;;19.00;14.50;;;11.90;84.80;;;;;;4987397;28;20038;-64
2023/04/18 09:09:50;;;;;;;21.10;14.95;;;12.00;85.00;;;;;;4985690;28;20122;-62
2023/04/18 09:12:21;;;;;;;18.75;14.70;;;12.10;84.80;;;;;;4985930;28;20039;-64
2023/04/18 09:15:12;;;;;;;18.75;14.45;;;12.20;84.70;;;;;;4985874;28;20054;-63
2023/04/18 09:17:44;;;;;;;18.83;14.15;;;12.40;84.30;;;;;;4985147;28;20035;-63
2023/04/18 09:20:11;;;;;;;19.20;14.82;;;12.50;84.00;;;;;;4986616;28;20045;-63
2023/04/18 09:22:56;;;;;;;21.67;14.75;;;12.60;83.70;;;;;;4987836;28;20513;-63
2023/04/18 09:25:41;;;;;;;18.17;14.73;;;12.70;82.80;;;;;;4986375;28;20046;-63
2023/04/18 09:28:22;;;;;;;18.75;14.15;;;12.80;82.40;;;;;;4989137;28;20386;-64
2023/04/18 09:30:50;;;;;;;19.50;14.93;;;12.90;82.50;;;;;;4988275;28;20475;-63
2023/04/18 09:33:16;;;;;;;16.80;13.35;;;13.00;82.40;;;;;;4985986;28;20041;-64
2023/04/18 09:35:42;;;;;;;18.90;14.57;;;13.00;82.10;;;;;;4988179;28;20497;-63
2023/04/18 09:38:08;;;;;;;17.48;14.10;;;13.10;82.00;;;;;;4988612;28;20050;-63
2023/04/18 09:40:34;;;;;;;16.58;13.40;;;13.20;81.50;;;;;;4987192;28;20837;-63
2023/04/18 09:43:00;;;;;;;17.85;13.93;;;13.20;81.00;;;;;;4983719;28;20034;-62
2023/04/18 09:45:26;;;;;;;17.02;13.60;;;13.20;80.40;;;;;;4986769;28;20034;-64
2023/04/18 09:47:52;;;;;;;18.90;13.13;;;13.20;80.20;;;;;;4984749;28;20085;-63
2023/04/18 09:50:19;;;;;;;17.05;12.60;;;13.20;80.10;;;;;;4984682;28;20359;-63
2023/04/18 09:52:46;;;;;;;18.33;13.40;;;13.20;80.00;;;;;;4986075;28;20045;-64
2023/04/18 09:55:17;;;;;;;18.27;13.45;;;13.30;80.10;;;;;;4986445;28;20497;-63
2023/04/18 09:57:47;;;;;;;16.85;12.60;;;13.30;79.20;;;;;;4986333;28;20041;-62
2023/04/18 10:00:24;;;;;;;15.70;12.93;;;13.30;79.40;;;;;;4987478;28;20088;-62
2023/04/18 10:02:51;;;;;;;15.20;12.73;;;13.40;78.60;;;;;;4983688;28;20034;-63
2023/04/18 10:05:19;;;;;;;15.73;12.35;;;13.40;79.10;;;;;;4986218;28;20037;-63
2023/04/18 10:07:47;;;;;;;17.42;13.55;;;13.30;78.90;;;;;;4984527;28;20037;-63
2023/04/18 10:10:13;;;;;;;17.73;12.43;;;13.40;78.80;;;;;;4983265;28;20038;-63
2023/04/18 10:12:40;;;;;;;15.75;12.68;;;13.40;78.70;;;;;;4984163;28;20062;-63
2023/04/18 10:15:07;;;;;;;15.50;12.25;;;13.40;78.80;;;;;;4987301;28;20034;-63
2023/04/18 10:17:42;;;;;;;14.15;11.95;;;13.40;78.60;;;;;;4982880;28;20034;-63
2023/04/18 10:20:11;;;;;;;16.38;11.98;;;13.40;77.90;;;;;;4986787;28;20104;-63
2023/04/18 10:22:37;;;;;;;15.27;11.60;;;13.50;78.30;;;;;;4984702;28;20100;-63
2023/04/18 10:25:03;;;;;;;14.52;11.88;;;13.40;77.90;;;;;;4982446;28;20498;-62
2023/04/18 10:27:47;;;;;;;16.90;12.68;;;13.40;77.70;;;;;;4986606;28;20125;-63
2023/04/18 10:30:13;;;;;;;14.73;12.02;;;13.40;77.00;;;;;;4985610;28;20073;-62
2023/04/18 10:32:39;;;;;;;15.43;11.80;;;13.40;77.50;;;;;;4981758;28;20034;-63
2023/04/18 10:35:05;;;;;;;14.43;12.30;;;13.40;77.50;;;;;;4983558;28;20049;-63
2023/04/18 10:37:32;;;;;;;15.77;11.90;;;13.40;77.50;;;;;;4981484;28;20506;-63
2023/04/18 10:40:05;;;;;;;16.08;12.10;;;13.40;77.90;;;;;;4985484;28;20035;-63
2023/04/18 10:42:46;;;;;;;17.30;11.85;;;13.40;77.60;;;;;;4981065;28;20038;-63
2023/04/18 10:45:24;;;;;;;14.40;11.43;;;13.40;77.50;;;;;;4985877;28;20066;-63
2023/04/18 10:48:14;;;;;;;14.82;11.35;;;13.50;77.50;;;;;;4983716;28;20528;-64
2023/04/18 10:51:15;;;;;;;14.23;10.93;;;13.50;77.50;;;;;;4983989;28;20034;-64
2023/04/18 10:53:56;;;;;;;13.45;10.30;;;13.60;77.50;;;;;;4984863;28;20131;-64
2023/04/18 10:56:22;;;;;;;15.32;11.10;;;13.60;77.50;;;;;;4984899;28;20537;-64
2023/04/18 10:58:51;;;;;;;14.05;10.85;;;13.70;77.90;;;;;;4983973;28;20083;-63
2023/04/18 11:01:29;;;;;;;14.45;10.80;;;13.70;77.50;;;;;;4984269;28;20034;-64
2023/04/18 11:03:55;;;;;;;12.75;10.80;;;13.80;77.20;;;;;;4984747;28;20041;-64
2023/04/18 11:06:22;;;;;;;13.00;10.48;;;13.80;78.00;;;;;;4984495;28;20104;-64
2023/04/18 11:08:48;;;;;;;12.27;10.18;;;13.90;77.60;;;;;;4984813;28;20125;-64
2023/04/18 11:11:14;;;;;;;12.43;10.20;;;13.90;77.50;;;;;;4984048;28;20034;-63
2023/04/18 11:13:57;;;;;;;12.35;9.70;;;14.00;77.30;;;;;;4981543;28;20034;-63
2023/04/18 11:16:30;;;;;;;11.43;9.40;;;14.10;76.30;;;;;;4982837;28;20057;-64
2023/04/18 11:18:56;;;;;;;11.55;9.07;;;14.10;76.30;;;;;;4982977;28;20580;-63
2023/04/18 11:21:28;;;;;;;11.55;9.60;;;14.20;76.80;;;;;;4984862;28;20042;-63
2023/04/18 11:23:55;;;;;;;10.90;8.85;;;14.10;76.00;;;;;;4984932;28;20049;-64
2023/04/18 11:26:25;;;;;;;10.85;9.13;;;14.30;76.10;;;;;;4984121;28;20053;-63
2023/04/18 11:28:52;;;;;;;11.65;9.40;;;14.30;75.80;;;;;;4984856;28;20497;-64
2023/04/18 11:31:20;;;;;;;11.50;9.65;;;14.30;75.80;;;;;;4982309;28;20039;-63
2023/04/18 11:33:46;;;;;;;11.13;9.50;;;14.40;76.10;;;;;;4982548;28;20105;-64
2023/04/18 11:36:12;;;;;;;10.88;8.43;;;14.40;76.10;;;;;;4985138;28;20122;-64
2023/04/18 11:38:39;;;;;;;10.50;9.00;;;14.50;76.10;;;;;;4983016;28;20034;-63
2023/04/18 11:41:10;;;;;;;10.07;8.35;;;14.50;75.40;;;;;;4982798;28;20042;-63
2023/04/18 11:43:36;;;;;;;10.02;8.20;;;14.60;75.40;;;;;;4986176;28;20054;-64
2023/04/18 11:46:01;;;;;;;9.65;7.63;;;14.60;75.30;;;;;;4983490;28;20057;-63
2023/04/18 11:48:41;;;;;;;10.25;7.93;;;14.70;75.40;;;;;;4983184;28;20038;-63
2023/04/18 11:51:28;;;;;;;9.23;7.68;;;14.70;74.20;;;;;;4983755;28;20509;-64
2023/04/18 11:53:53;;;;;;;9.38;7.78;;;14.70;74.70;;;;;;4981474;28;20041;-63
2023/04/18 11:56:20;;;;;;;9.95;7.45;;;14.80;74.60;;;;;;4984094;28;20335;-64
2023/04/18 11:58:46;;;;;;;8.48;7.40;;;14.80;74.30;;;;;;4983677;28;20113;-64
2023/04/18 12:01:29;;;;;;;10.57;7.68;;;14.80;74.00;;;;;;4983697;28;20096;-63
2023/04/18 12:04:06;;;;;;;8.52;6.63;;;14.90;72.60;;;;;;4980803;28;20417;-64
2023/04/18 12:06:51;;;;;;;7.72;6.93;;;14.90;73.10;;;;;;4980754;28;20066;-61
2023/04/18 12:09:17;;;;;;;7.75;6.72;;;14.90;72.30;;;;;;4982116;28;20038;-63
2023/04/18 12:11:43;;;;;;;7.20;6.22;;;14.90;73.00;;;;;;4981583;28;20578;-63
2023/04/18 12:14:20;;;;;;;7.75;6.25;;;14.90;72.60;;;;;;4982999;28;20045;-63
2023/04/18 12:16:48;;;;;;;9.25;6.40;;;14.90;72.10;;;;;;4983345;28;20486;-64
2023/04/18 12:19:13;;;;;;;6.32;5.65;;;14.90;72.80;;;;;;4983232;28;20505;-63
2023/04/18 12:22:01;;;;;;;7.00;5.88;;;14.90;72.80;;;;;;4984569;28;20041;-64
2023/04/18 12:24:27;;;;;;;9.40;6.60;;;15.00;72.00;;;;;;4983182;28;20034;-63
2023/04/18 12:26:54;;;;;;;7.82;6.10;;;15.00;72.80;;;;;;4983979;28;20049;-63
2023/04/18 12:29:20;;;;;;;7.38;6.22;;;15.00;72.50;;;;;;4983512;28;20030;-63
2023/04/18 12:31:46;;;;;;;7.28;6.05;;;15.10;72.30;;;;;;4980509;28;20631;-64
2023/04/18 12:34:12;;;;;;;6.13;5.53;;;15.10;72.10;;;;;;4983157;28;20045;-64
2023/04/18 12:36:37;;;;;;;6.68;5.78;;;15.10;71.90;;;;;;4981129;28;20034;-63
2023/04/18 12:39:03;;;;;;;6.28;5.68;;;15.10;71.60;;;;;;4982842;28;20050;-63